Santa Ponca, Spain
Current Conditions -  °F | °C
As of 6:00 AM on Tuesday 23 Dec 2014 (Local Time) from LEPA Reporting Station
Scattered Clouds Scattered Clouds  
Wind Chill: 43°   Ceiling: Unl
Heat Index: 43°   Visibility: 6mi
Dew Point: 43°   Wind: 0mph
Humidity: 100%   Direction: NA
Pressure: 30.42"   Gusts: NA
Location:  39.51°N, 2.48°E
Report Text: LEPA 230500Z 00000KT 9999 SCT018 06/06 Q1030 NOSIG
Loading
Personal Weather Stations






























Interactive Weather Map New forecast layout! Learn more

10-Day Weather Forecast

Advertisements
Track Severe Weather on mobile